Hooper Bay, AK

7:30 AM AKDT on June 18, 2018 (GMT -0800)
Hooper Bay | | Change Station

Elev 16 ft 61.52 °N, 166.15 °W | Updated 34 minutes ago

Partly Cloudy
Partly Cloudy
47 °F
Feels Like 47 °F
N
7
Wind Variable Wind from NNE

Today
High -- | Low -- °F
--% Chance of Precip.
Yesterday
High -- | Low -- °F
Precip. -- in
Pressure 29.65 in
Visibility 10.0 miles
Clouds Few 10000 ft
Dew Point 46 °F
Humidity 97%
Rainfall 0.01 in
Snow Depth Not available.
5:20 AM 0:51 AM
Waxing Crescent, 30% visible
METAR PAHP 181456Z AUTO 02006KT 10SM FEW100 08/08 A2954 RMK AO2 RAB14E27 SLP040 P0000 60000 T00830078 53001
Pressure 29.65 in
Visibility 10.0 miles
Clouds Few 10000 ft
Dew Point 46 °F
Humidity 97%
Rainfall 0.01 in
Snow Depth Not available.
5:20 AM 0:51 AM
Waxing Crescent, 30% visible
METAR PAHP 181456Z AUTO 02006KT 10SM FEW100 08/08 A2954 RMK AO2 RAB14E27 SLP040 P0000 60000 T00830078 53001

Get Severe Weather Alerts

Thanks for signing up!

Be on the lookout for a verification email in your inbox.

You'll start receiving the daily forecast at 6 AM.

×

10-Day Weather Forecast

Almanac

Astronomy

Jun. 18, 2018 Rise Set
Actual Time
Civil Twilight
Nautical Twilight
Astronomical Twilight
Moon
Length of Visible Light
Length of Day
Tomorrow will be .
, % of the Moon is Illuminated

Today's Extremes

State Highs State Lows

Community

WunderPhotos

Category 6

Welcome to Category 6. This is the collective home for Weather Underground's featured writeups by Dr. Jeff Masters (right), Bob Henson (left), Chris Burt, and other regular contributors.

Nearby

Air Quality

  Air Quality AQ Index Pollutant
Not available.

Snow Depth

Station Depth Elevation

Earthquake Activity

City Distance Mag. Time & Date
Minimum magnitude displayed is 2.5.

Coastal Water Temperatures

Place Temperature

Stations

Nearby Weather Stations

Station Location Temp. Windchill Dew Point Humidity Wind Precip. Elev Updated Type
                   

Watches & Warnings

There are currently no watches in effect.